Brantwood, Wisconsin
Current Conditions -  °F | °C
As of 4:55 AM on Friday 24 Oct 2014 (Local Time) from KPBH Reporting Station
Haze Haze  
Wind Chill: 45°   Ceiling: 200
Heat Index: 45°   Visibility: 1.7mi
Dew Point: 45°   Wind: 3mph
Humidity: 100%   Direction: 200°SSW
Pressure: 29.99"   Gusts: NA
Location:  45.56°N, 90.12°W
Report Text: KPBH 240955Z AUTO 20003KT 1 3/4SM BR OVC002 07/07 A2999 RMK AO2 T00730073
Loading
Personal Weather Stations






























Interactive Weather Map New forecast layout! Learn more

10-Day Weather Forecast

Advertisements
Track Severe Weather on mobile